Time;durP1;ratioP1;P1;durP2;ratioP2;P2;SDS_P1;SDS_P2;PMS_P1;PMS_P2;Temp;Humidity;BMP_temperature;BMP_pressure;BME280_temperature;BME280_humidity;BME280_pressure;Samples;Min_cycle;Max_cycle;Signal;HPM_P1;HPM_P2
2021/11/18 00:00:33;;;;;;;0.30;0.10;;;;;;;5.18;100.00;101383.63;5003800;28;20480;-47
2021/11/18 00:03:02;;;;;;;0.30;0.20;;;;;;;5.01;100.00;101380.78;5004870;28;20444;-47
2021/11/18 00:05:30;;;;;;;0.30;0.20;;;;;;;4.99;100.00;101373.75;5006943;28;20552;-46
2021/11/18 00:07:56;;;;;;;0.30;0.20;;;;;;;4.91;100.00;101384.19;4987362;28;20449;-46
2021/11/18 00:10:26;;;;;;;0.30;0.10;;;;;;;4.94;100.00;101381.59;4999905;28;20512;-47
2021/11/18 00:12:55;;;;;;;0.30;0.20;;;;;;;4.96;100.00;101379.00;5002504;28;20502;-47
2021/11/18 00:15:25;;;;;;;0.30;0.20;;;;;;;4.94;100.00;101391.25;4999568;28;20497;-47
2021/11/18 00:18:01;;;;;;;0.30;0.20;;;;;;;4.98;100.00;101382.53;5005214;28;20453;-47
2021/11/18 00:20:31;;;;;;;0.30;0.20;;;;;;;5.08;100.00;101372.97;5006438;28;20445;-47
2021/11/18 00:22:57;;;;;;;0.30;0.20;;;;;;;4.86;100.00;101374.47;5003645;28;20880;-47
2021/11/18 00:25:25;;;;;;;0.30;0.20;;;;;;;4.86;100.00;101377.09;4999651;28;20465;-47
2021/11/18 00:27:52;;;;;;;0.30;0.20;;;;;;;4.91;100.00;101364.84;5002310;28;20450;-47
2021/11/18 00:30:19;;;;;;;0.30;0.20;;;;;;;4.88;100.00;101376.25;5006645;28;20450;-47
2021/11/18 00:32:46;;;;;;;0.30;0.20;;;;;;;4.92;100.00;101380.69;5003985;28;20448;-47
2021/11/18 00:35:17;;;;;;;0.30;0.20;;;;;;;4.89;100.00;101377.13;4999192;28;21005;-47
2021/11/18 00:37:44;;;;;;;0.30;0.20;;;;;;;4.94;100.00;101388.63;5001294;28;20508;-47
2021/11/18 00:40:13;;;;;;;0.30;0.20;;;;;;;4.95;100.00;101400.94;5006034;28;20505;-47
2021/11/18 00:42:40;;;;;;;0.30;0.20;;;;;;;4.89;100.00;101411.38;5004710;28;20452;-47
2021/11/18 00:45:08;;;;;;;0.43;0.43;;;;;;;4.98;100.00;101409.75;4999291;28;20500;-47
2021/11/18 00:47:35;;;;;;;0.30;0.20;;;;;;;5.15;100.00;101403.78;5000744;28;20488;-47
2021/11/18 00:50:05;;;;;;;0.30;0.10;;;;;;;5.17;100.00;101399.41;5006069;28;20810;-48
2021/11/18 00:52:31;;;;;;;0.27;0.20;;;;;;;5.03;100.00;101399.25;5005232;28;20507;-48
2021/11/18 00:54:58;;;;;;;0.30;0.20;;;;;;;5.06;100.00;101408.06;4998947;28;20496;-47
2021/11/18 00:57:25;;;;;;;0.30;0.10;;;;;;;5.02;100.00;101422.09;5000140;28;20450;-47
2021/11/18 00:59:51;;;;;;;0.30;0.20;;;;;;;4.99;100.00;101422.06;5005997;28;20449;-47
2021/11/18 01:02:19;;;;;;;0.30;0.20;;;;;;;4.97;100.00;101421.16;5005459;28;20480;-47
2021/11/18 01:04:46;;;;;;;0.30;0.20;;;;;;;5.13;100.00;101414.31;5012323;28;20469;-47
2021/11/18 01:07:13;;;;;;;0.20;0.10;;;;;;;5.24;100.00;101417.09;5011487;28;20483;-47
2021/11/18 01:09:39;;;;;;;2.50;1.23;;;;;;;5.06;100.00;101426.50;5000109;28;20448;-47
2021/11/18 01:12:09;;;;;;;2.87;1.30;;;;;;;4.94;100.00;101426.41;4998942;28;20866;-47
2021/11/18 01:14:36;;;;;;;0.30;0.20;;;;;;;5.04;100.00;101422.97;5004235;28;20563;-47
2021/11/18 01:17:04;;;;;;;0.20;0.20;;;;;;;4.99;100.00;101429.06;5006052;28;20498;-47
2021/11/18 01:19:32;;;;;;;0.30;0.20;;;;;;;4.93;100.00;101426.34;5001297;28;20812;-47
2021/11/18 01:22:00;;;;;;;0.30;0.20;;;;;;;4.91;100.00;101413.16;4999216;28;20449;-47
2021/11/18 01:24:27;;;;;;;0.30;0.20;;;;;;;5.08;100.00;101423.03;5003330;28;20478;-46
2021/11/18 01:26:54;;;;;;;0.30;0.20;;;;;;;4.94;100.00;101420.25;5005845;28;20453;-47
2021/11/18 01:29:20;;;;;;;0.30;0.20;;;;;;;4.85;100.00;101422.75;5001638;28;20484;-47
2021/11/18 01:31:47;;;;;;;0.30;0.20;;;;;;;4.95;100.00;101420.25;4999075;28;20449;-47
2021/11/18 01:34:14;;;;;;;0.30;0.10;;;;;;;4.91;100.00;101417.53;5002764;28;20556;-47
2021/11/18 01:36:41;;;;;;;0.30;0.20;;;;;;;4.91;100.00;101418.44;5005320;28;20520;-47
2021/11/18 01:39:08;;;;;;;1.90;1.80;;;;;;;4.97;100.00;101423.78;5002434;28;20456;-47
2021/11/18 01:41:37;;;;;;;0.30;0.20;;;;;;;4.96;100.00;101416.75;4999064;28;20452;-46
2021/11/18 01:44:16;;;;;;;0.60;0.60;;;;;;;4.96;100.00;101431.69;5002449;28;20540;-47
2021/11/18 01:46:43;;;;;;;0.30;0.10;;;;;;;4.79;100.00;101431.44;5005784;28;20441;-47
2021/11/18 01:49:11;;;;;;;0.30;0.20;;;;;;;4.87;100.00;101437.69;5004252;28;20491;-47
2021/11/18 01:51:48;;;;;;;0.30;0.30;;;;;;;5.10;100.00;101442.38;5002066;28;20953;-47
2021/11/18 01:54:17;;;;;;;0.30;0.20;;;;;;;4.98;100.00;101446.63;5002609;28;20556;-51
2021/11/18 01:56:44;;;;;;;0.30;0.30;;;;;;;5.10;100.00;101443.28;5008129;28;20527;-51
2021/11/18 01:59:17;;;;;;;0.30;0.20;;;;;;;5.32;100.00;101444.38;5009126;28;20461;-51
2021/11/18 02:01:51;;;;;;;0.60;0.60;;;;;;;5.09;100.00;101451.16;5004708;28;20483;-51
2021/11/18 02:04:22;;;;;;;0.30;0.20;;;;;;;5.00;100.00;101447.53;5002539;28;20460;-51
2021/11/18 02:06:56;;;;;;;0.30;0.20;;;;;;;4.92;100.00;101451.81;5015568;28;20441;-51
2021/11/18 02:09:26;;;;;;;0.53;0.53;;;;;;;4.98;100.00;101446.63;5001981;28;20503;-51
2021/11/18 02:12:02;;;;;;;2.53;1.80;;;;;;;4.87;100.00;101442.97;5003184;28;20947;-51
2021/11/18 02:14:29;;;;;;;0.30;0.20;;;;;;;4.94;100.00;101446.59;5008575;28;20547;-50
2021/11/18 02:17:00;;;;;;;0.27;0.20;;;;;;;4.88;100.00;101447.38;5009068;28;20550;-51
2021/11/18 02:19:33;;;;;;;0.20;0.20;;;;;;;4.89;100.00;101454.41;5003069;28;20445;-50
2021/11/18 02:21:59;;;;;;;0.20;0.20;;;;;;;5.02;100.00;101466.00;5001923;28;20484;-51
2021/11/18 02:24:30;;;;;;;0.30;0.20;;;;;;;4.94;100.00;101459.75;5006717;28;20531;-51
2021/11/18 02:26:56;;;;;;;0.57;0.57;;;;;;;4.85;100.00;101465.78;5007373;28;20527;-51
2021/11/18 02:29:23;;;;;;;0.30;0.20;;;;;;;4.82;100.00;101462.22;5004423;28;21011;-50
2021/11/18 02:31:57;;;;;;;0.30;0.20;;;;;;;4.78;100.00;101458.63;5001853;28;20457;-51
2021/11/18 02:34:38;;;;;;;0.30;0.20;;;;;;;4.87;100.00;101456.13;5004764;28;20470;-51
2021/11/18 02:37:05;;;;;;;0.30;0.20;;;;;;;4.81;100.00;101471.00;5001066;28;20524;-51
2021/11/18 02:39:32;;;;;;;0.30;0.20;;;;;;;4.59;100.00;101473.31;5002334;28;20512;-51
2021/11/18 02:41:59;;;;;;;0.30;0.20;;;;;;;4.71;100.00;101464.69;5008440;28;20449;-51
2021/11/18 02:44:28;;;;;;;0.30;0.20;;;;;;;4.65;100.00;101467.22;5008340;28;20480;-51
2021/11/18 02:46:56;;;;;;;0.20;0.20;;;;;;;4.54;100.00;101468.84;5007864;28;21009;-51
2021/11/18 02:49:23;;;;;;;0.20;0.20;;;;;;;4.59;100.00;101467.16;5008326;28;20510;-51
2021/11/18 02:51:49;;;;;;;0.30;0.20;;;;;;;4.59;100.00;101462.78;5002194;28;20949;-51
2021/11/18 02:54:17;;;;;;;0.30;0.20;;;;;;;4.62;100.00;101468.06;5001231;28;20512;-50
2021/11/18 02:56:44;;;;;;;0.30;0.20;;;;;;;4.57;100.00;101468.88;5007223;28;20493;-51
2021/11/18 02:59:10;;;;;;;0.30;0.20;;;;;;;4.65;100.00;101472.50;5007915;28;20484;-51
2021/11/18 03:01:43;;;;;;;0.30;0.20;;;;;;;4.55;100.00;101481.16;5000906;28;20530;-51
2021/11/18 03:04:10;;;;;;;0.20;0.20;;;;;;;4.59;100.00;101472.41;5001679;28;20461;-51
2021/11/18 03:06:37;;;;;;;0.30;0.20;;;;;;;4.67;100.00;101479.56;5014687;28;20499;-50
2021/11/18 03:09:05;;;;;;;0.20;0.20;;;;;;;4.61;100.00;101481.22;5000975;28;20813;-51
2021/11/18 03:11:33;;;;;;;0.20;0.17;;;;;;;4.55;100.00;101484.66;5004803;28;20457;-50
2021/11/18 03:14:00;;;;;;;0.20;0.20;;;;;;;4.53;100.00;101483.75;5007567;28;20539;-51
2021/11/18 03:16:27;;;;;;;0.20;0.20;;;;;;;4.47;100.00;101483.66;5004425;28;20488;-51
2021/11/18 03:18:53;;;;;;;0.27;0.17;;;;;;;4.33;100.00;101491.31;5000750;28;20476;-51
2021/11/18 03:21:24;;;;;;;0.30;0.20;;;;;;;4.28;100.00;101490.38;5003403;28;20870;-51
2021/11/18 03:23:52;;;;;;;0.20;0.17;;;;;;;4.32;100.00;101491.31;5007731;28;20476;-51
2021/11/18 03:26:23;;;;;;;0.23;0.20;;;;;;;4.36;100.00;101487.84;5004600;28;20453;-51
2021/11/18 03:28:50;;;;;;;0.30;0.20;;;;;;;4.33;100.00;101490.44;5000621;28;20448;-51
2021/11/18 03:31:17;;;;;;;0.30;0.20;;;;;;;4.20;100.00;101499.88;4998675;28;20450;-50
2021/11/18 03:33:53;;;;;;;0.27;0.20;;;;;;;4.32;100.00;101486.91;5005066;28;20930;-51
2021/11/18 03:36:21;;;;;;;0.20;0.20;;;;;;;4.29;100.00;101486.88;5006511;28;20907;-51
2021/11/18 03:38:48;;;;;;;0.20;0.20;;;;;;;4.22;100.00;101492.88;5000534;28;20485;-51
2021/11/18 03:41:17;;;;;;;0.20;0.17;;;;;;;4.20;100.00;101496.34;5001082;28;20504;-51
2021/11/18 03:43:52;;;;;;;0.30;0.10;;;;;;;4.21;100.00;101488.50;5006063;28;20841;-51
2021/11/18 03:46:23;;;;;;;0.30;0.20;;;;;;;4.22;100.00;101494.63;5007011;28;21000;-50
2021/11/18 03:48:49;;;;;;;0.20;0.10;;;;;;;4.22;100.00;101497.25;5002627;28;20467;-50
2021/11/18 03:51:16;;;;;;;0.20;0.20;;;;;;;4.21;100.00;101496.38;5000367;28;20449;-50
2021/11/18 03:53:43;;;;;;;0.30;0.20;;;;;;;4.21;100.00;101490.22;5005002;28;20501;-50
2021/11/18 03:56:18;;;;;;;0.30;0.10;;;;;;;4.22;100.00;101498.16;5006801;28;20514;-50
2021/11/18 03:58:46;;;;;;;0.30;0.20;;;;;;;4.10;100.00;101498.81;5003644;28;20444;-50
2021/11/18 04:01:13;;;;;;;0.30;0.20;;;;;;;4.06;100.00;101504.00;5000055;28;20452;-49
2021/11/18 04:03:40;;;;;;;0.30;0.20;;;;;;;4.14;100.00;101507.69;5003221;28;20488;-51
2021/11/18 04:06:07;;;;;;;0.20;0.10;;;;;;;4.04;100.00;101495.22;5011723;28;20468;-50
2021/11/18 04:08:34;;;;;;;0.20;0.10;;;;;;;4.06;100.00;101502.28;5001585;28;20528;-50
2021/11/18 04:11:01;;;;;;;0.30;0.20;;;;;;;4.00;100.00;101511.81;5006469;28;20502;-51
2021/11/18 04:13:28;;;;;;;0.20;0.10;;;;;;;3.79;100.00;101509.66;5004299;28;20448;-51
2021/11/18 04:15:55;;;;;;;0.20;0.20;;;;;;;3.84;100.00;101513.28;5038875;22;20492;-48
2021/11/18 04:18:23;;;;;;;0.20;0.20;;;;;;;3.68;100.00;101525.22;5021836;28;20480;-48
2021/11/18 04:20:51;;;;;;;0.43;0.43;;;;;;;3.74;100.00;101520.09;5032678;28;20502;-49
2021/11/18 04:23:21;;;;;;;0.20;0.10;;;;;;;3.63;100.00;101529.53;5021183;28;20535;-48
2021/11/18 04:25:49;;;;;;;0.30;0.20;;;;;;;3.68;100.00;101530.47;5020760;28;20469;-48
2021/11/18 04:28:16;;;;;;;0.27;0.20;;;;;;;3.79;100.00;101539.47;5007413;28;20452;-48
2021/11/18 04:30:56;;;;;;;0.20;0.17;;;;;;;3.74;100.00;101543.78;5000713;28;20463;-48
2021/11/18 04:33:24;;;;;;;0.30;0.20;;;;;;;3.92;100.00;101551.13;5026486;28;20994;-48
2021/11/18 04:35:52;;;;;;;0.20;0.10;;;;;;;3.68;100.00;101541.00;5022091;28;20519;-48
2021/11/18 04:38:19;;;;;;;0.30;0.20;;;;;;;3.84;100.00;101543.09;5031524;28;20521;-49
2021/11/18 04:40:46;;;;;;;0.20;0.20;;;;;;;3.78;100.00;101552.59;5022801;28;20447;-48
2021/11/18 04:43:14;;;;;;;0.20;0.20;;;;;;;3.61;100.00;101536.50;5030478;28;20456;-49
2021/11/18 04:45:40;;;;;;;0.30;0.20;;;;;;;3.90;100.00;101547.56;5022844;28;20502;-49
2021/11/18 04:48:07;;;;;;;0.30;0.20;;;;;;;3.69;100.00;101548.03;5019532;28;20447;-49
2021/11/18 04:50:36;;;;;;;0.30;0.20;;;;;;;3.79;100.00;101555.25;5023341;28;20453;-49
2021/11/18 04:53:04;;;;;;;0.20;0.20;;;;;;;3.63;100.00;101549.66;5026565;28;20452;-48
2021/11/18 04:55:31;;;;;;;0.30;0.20;;;;;;;3.56;100.00;101549.56;5013509;28;20811;-48
2021/11/18 04:57:58;;;;;;;0.30;0.20;;;;;;;3.64;100.00;101556.69;5013697;28;20494;-49
2021/11/18 05:00:33;;;;;;;0.30;0.20;;;;;;;3.62;100.00;101545.28;5024583;28;20448;-49
2021/11/18 05:03:01;;;;;;;0.20;0.10;;;;;;;3.54;100.00;101538.09;5025321;28;20444;-49
2021/11/18 05:05:29;;;;;;;0.20;0.10;;;;;;;3.39;100.00;101544.78;5013465;28;20471;-49
2021/11/18 05:07:56;;;;;;;0.20;0.20;;;;;;;3.37;100.00;101549.13;5019961;28;20448;-49
2021/11/18 05:10:22;;;;;;;0.20;0.20;;;;;;;3.45;100.00;101539.69;5019563;28;20871;-49
2021/11/18 05:12:50;;;;;;;0.20;0.20;;;;;;;3.43;100.00;101549.28;5022010;28;20456;-49
2021/11/18 05:15:18;;;;;;;0.20;0.10;;;;;;;3.34;100.00;101549.97;5032411;28;20480;-49
2021/11/18 05:17:47;;;;;;;0.30;0.10;;;;;;;3.33;100.00;101548.19;5020363;28;21026;-49
2021/11/18 05:20:17;;;;;;;0.30;0.20;;;;;;;3.34;100.00;101557.84;5019528;28;20965;-49
2021/11/18 05:22:44;;;;;;;0.20;0.20;;;;;;;3.28;100.00;101553.31;5025336;28;20448;-49
2021/11/18 05:25:11;;;;;;;0.30;0.20;;;;;;;3.42;100.00;101553.63;5017764;28;21013;-49
2021/11/18 05:27:38;;;;;;;0.30;0.20;;;;;;;3.48;100.00;101550.25;5037142;28;20447;-49
2021/11/18 05:30:06;;;;;;;0.20;0.20;;;;;;;3.47;100.00;101554.63;5021845;28;20452;-49
2021/11/18 05:32:33;;;;;;;0.30;0.10;;;;;;;3.40;100.00;101554.44;5017374;28;20460;-49
2021/11/18 05:35:00;;;;;;;2.00;0.90;;;;;;;3.40;100.00;101559.69;5030596;28;20475;-49
2021/11/18 05:37:27;;;;;;;0.20;0.10;;;;;;;3.41;100.00;101561.47;5027913;28;20495;-49
2021/11/18 05:39:53;;;;;;;0.20;0.20;;;;;;;3.69;100.00;101565.56;5020928;28;20456;-49
2021/11/18 05:42:21;;;;;;;0.20;0.10;;;;;;;3.61;100.00;101569.78;5026572;28;20452;-49
2021/11/18 05:44:49;;;;;;;0.30;0.20;;;;;;;3.68;100.00;101561.16;5023148;28;20992;-49
2021/11/18 05:47:18;;;;;;;0.20;0.10;;;;;;;3.51;100.00;101561.69;5026888;28;20443;-49
2021/11/18 05:49:45;;;;;;;0.20;0.20;;;;;;;3.33;100.00;101563.97;5030470;28;20484;-49
2021/11/18 05:52:12;;;;;;;0.20;0.17;;;;;;;3.35;100.00;101564.88;5017018;28;20949;-49
2021/11/18 05:54:39;;;;;;;0.20;0.17;;;;;;;3.39;100.00;101561.44;5018029;28;20513;-49
2021/11/18 05:57:06;;;;;;;0.20;0.20;;;;;;;3.21;100.00;101561.06;5028035;28;20546;-49
2021/11/18 05:59:33;;;;;;;0.30;0.20;;;;;;;3.26;100.00;101564.66;5018417;28;20460;-49
2021/11/18 06:01:59;;;;;;;0.20;0.10;;;;;;;3.26;100.00;101562.03;5027834;28;21022;-49
2021/11/18 06:04:27;;;;;;;0.20;0.10;;;;;;;3.27;100.00;101564.69;5018108;28;20836;-49
2021/11/18 06:06:54;;;;;;;3.90;1.43;;;;;;;3.39;100.00;101552.69;5028243;28;20486;-49
2021/11/18 06:09:21;;;;;;;0.30;0.20;;;;;;;3.41;100.00;101550.97;5035795;28;20451;-49
2021/11/18 06:11:47;;;;;;;0.20;0.20;;;;;;;3.19;100.00;101552.25;5023766;28;20460;-49
2021/11/18 06:14:14;;;;;;;0.30;0.20;;;;;;;3.27;100.00;101558.56;5034241;28;20556;-50
2021/11/18 06:16:41;;;;;;;0.20;0.10;;;;;;;3.14;100.00;101560.03;5023441;28;20537;-49
2021/11/18 06:19:08;;;;;;;0.30;0.30;;;;;;;3.18;100.00;101566.25;5015738;28;20539;-49
2021/11/18 06:21:39;;;;;;;0.20;0.10;;;;;;;3.17;100.00;101570.63;5027770;28;20509;-49
2021/11/18 06:24:07;;;;;;;0.20;0.10;;;;;;;3.23;100.00;101572.47;5015621;28;21011;-49
2021/11/18 06:26:34;;;;;;;0.20;0.20;;;;;;;3.25;100.00;101576.03;5028434;28;21006;-49
2021/11/18 06:29:00;;;;;;;0.20;0.20;;;;;;;3.23;100.00;101576.00;5009583;28;21010;-49
2021/11/18 06:31:27;;;;;;;0.20;0.20;;;;;;;3.21;100.00;101580.34;5030192;28;20570;-49
2021/11/18 06:33:54;;;;;;;0.20;0.20;;;;;;;3.22;100.00;101578.59;5002722;28;20540;-49
2021/11/18 06:36:21;;;;;;;0.20;0.20;;;;;;;3.22;100.00;101586.47;5027735;28;21050;-49
2021/11/18 06:38:49;;;;;;;0.20;0.10;;;;;;;3.10;100.00;101587.09;5009126;28;20452;-49
2021/11/18 06:41:19;;;;;;;0.20;0.20;;;;;;;3.01;100.00;101597.38;5034144;28;20937;-49
2021/11/18 06:43:47;;;;;;;0.33;0.33;;;;;;;2.98;100.00;101597.31;5022867;28;20452;-49
2021/11/18 06:46:15;;;;;;;0.20;0.20;;;;;;;2.98;100.00;101610.44;5034822;28;20464;-49
2021/11/18 06:48:42;;;;;;;0.20;0.10;;;;;;;2.91;100.00;101611.16;5026677;28;20480;-49
2021/11/18 06:51:13;;;;;;;0.20;0.20;;;;;;;3.04;100.00;101615.84;5027932;28;20807;-49
2021/11/18 06:53:42;;;;;;;0.20;0.20;;;;;;;3.03;100.00;101610.56;5024511;28;20529;-49
2021/11/18 06:56:11;;;;;;;0.20;0.10;;;;;;;3.06;100.00;101621.13;5034635;28;20471;-49
2021/11/18 06:58:38;;;;;;;0.20;0.20;;;;;;;3.15;100.00;101626.56;5024819;28;20827;-49
2021/11/18 07:01:05;;;;;;;0.20;0.10;;;;;;;3.00;100.00;101632.38;5030188;28;20452;-49
2021/11/18 07:03:32;;;;;;;0.20;0.20;;;;;;;3.12;100.00;101640.53;5013964;28;20458;-49
2021/11/18 07:06:00;;;;;;;0.20;0.20;;;;;;;3.25;100.00;101646.97;5025302;28;20905;-49
2021/11/18 07:08:26;;;;;;;0.60;0.60;;;;;;;3.33;100.00;101637.53;5025720;28;20444;-49
2021/11/18 07:10:53;;;;;;;0.30;0.20;;;;;;;3.34;100.00;101641.94;5019410;28;20448;-49
2021/11/18 07:13:25;;;;;;;0.30;0.20;;;;;;;3.41;100.00;101646.44;5026035;28;20452;-49
2021/11/18 07:15:52;;;;;;;0.20;0.20;;;;;;;3.44;100.00;101656.19;5021164;28;20518;-49
2021/11/18 07:18:20;;;;;;;3.20;0.83;;;;;;;3.38;100.00;101662.16;5022546;28;20496;-49
2021/11/18 07:20:47;;;;;;;0.20;0.20;;;;;;;3.38;100.00;101664.78;5019539;28;20873;-49
2021/11/18 07:23:14;;;;;;;0.20;0.20;;;;;;;3.47;100.00;101667.63;5022182;28;20448;-49
2021/11/18 07:25:41;;;;;;;2.93;1.37;;;;;;;3.60;100.00;101670.53;5027474;28;20523;-49
2021/11/18 07:28:10;;;;;;;0.20;0.20;;;;;;;3.66;100.00;101675.91;5026762;28;20531;-49
2021/11/18 07:30:36;;;;;;;0.20;0.20;;;;;;;3.72;100.00;101668.19;5019518;28;20452;-49
2021/11/18 07:33:04;;;;;;;0.20;0.10;;;;;;;3.81;100.00;101663.09;5026980;28;20452;-49
2021/11/18 07:35:31;;;;;;;0.20;0.20;;;;;;;3.78;100.00;101661.28;5014309;28;20477;-49
2021/11/18 07:37:58;;;;;;;1.47;1.47;;;;;;;3.88;100.00;101656.25;5013936;28;20492;-49
2021/11/18 07:40:25;;;;;;;0.20;0.20;;;;;;;4.04;100.00;101650.44;5009354;28;20509;-49
2021/11/18 07:42:52;;;;;;;0.20;0.20;;;;;;;3.97;100.00;101657.28;5022550;28;20498;-49
2021/11/18 07:45:22;;;;;;;0.20;0.10;;;;;;;4.05;100.00;101657.47;5028543;28;20465;-50
2021/11/18 07:47:49;;;;;;;0.20;0.10;;;;;;;4.08;100.00;101654.88;5028790;28;20448;-49
2021/11/18 07:50:17;;;;;;;0.20;0.20;;;;;;;4.47;100.00;101668.81;5024386;28;20447;-49
2021/11/18 07:52:44;;;;;;;0.20;0.20;;;;;;;4.44;100.00;101671.38;5002905;28;20492;-49
2021/11/18 07:55:15;;;;;;;0.27;0.20;;;;;;;4.41;100.00;101675.72;5025093;28;20468;-49
2021/11/18 07:57:42;;;;;;;0.20;0.20;;;;;;;4.36;100.00;101687.88;5027277;28;20486;-49
2021/11/18 08:00:12;;;;;;;0.20;0.10;;;;;;;4.32;100.00;101693.97;5014457;28;20448;-49
2021/11/18 08:02:40;;;;;;;0.20;0.10;;;;;;;4.40;100.00;101693.25;5018309;28;20444;-49
2021/11/18 08:05:08;;;;;;;1.27;1.27;;;;;;;4.36;100.00;101694.03;5023361;28;20844;-49
2021/11/18 08:07:35;;;;;;;0.47;0.47;;;;;;;4.41;100.00;101692.41;5026644;28;20515;-49
2021/11/18 08:10:04;;;;;;;0.80;0.80;;;;;;;4.51;100.00;101697.81;5014869;28;20449;-49
2021/11/18 08:12:34;;;;;;;0.20;0.10;;;;;;;4.57;100.00;101690.94;5022816;28;20876;-49
2021/11/18 08:15:02;;;;;;;0.20;0.20;;;;;;;4.61;100.00;101694.50;5034847;28;20567;-49
2021/11/18 08:17:29;;;;;;;0.20;0.20;;;;;;;4.65;100.00;101694.56;5020906;28;20529;-49
2021/11/18 08:19:55;;;;;;;0.30;0.20;;;;;;;4.72;100.00;101688.56;5022286;28;20452;-50
2021/11/18 08:22:22;;;;;;;0.20;0.20;;;;;;;4.85;100.00;101692.31;5027867;28;20475;-49
2021/11/18 08:24:48;;;;;;;0.30;0.20;;;;;;;4.90;100.00;101692.38;5026803;28;20522;-49
2021/11/18 08:27:15;;;;;;;0.80;0.80;;;;;;;4.98;100.00;101701.31;5020747;28;20812;-50
2021/11/18 08:29:42;;;;;;;0.20;0.20;;;;;;;5.18;100.00;101696.34;5033373;28;20866;-50
2021/11/18 08:32:08;;;;;;;0.30;0.20;;;;;;;5.16;100.00;101693.69;5019583;28;20452;-48
2021/11/18 08:34:36;;;;;;;0.47;0.47;;;;;;;5.26;100.00;101694.75;5020263;28;20507;-48
2021/11/18 08:37:04;;;;;;;1.50;1.43;;;;;;;5.35;100.00;101692.25;5008375;28;20990;-48
2021/11/18 08:39:31;;;;;;;0.30;0.20;;;;;;;5.40;100.00;101687.06;5025891;28;20448;-48
2021/11/18 08:42:00;;;;;;;0.20;0.20;;;;;;;5.48;100.00;101703.84;5020460;28;20459;-48
2021/11/18 08:44:29;;;;;;;0.40;0.40;;;;;;;5.66;100.00;101706.78;5019270;28;20476;-48
2021/11/18 08:46:57;;;;;;;0.20;0.20;;;;;;;5.71;100.00;101699.81;5025006;28;20449;-48
2021/11/18 08:49:25;;;;;;;0.27;0.20;;;;;;;5.79;100.00;101702.56;5025811;28;20451;-48
2021/11/18 08:51:52;;;;;;;0.20;0.20;;;;;;;5.88;100.00;101703.56;5020784;28;20451;-48
2021/11/18 08:54:23;;;;;;;0.30;0.20;;;;;;;5.97;100.00;101707.22;5018909;28;21015;-48
2021/11/18 08:56:52;;;;;;;0.30;0.20;;;;;;;5.99;100.00;101711.66;5023426;28;20452;-48
2021/11/18 08:59:20;;;;;;;0.20;0.20;;;;;;;6.06;100.00;101708.25;5025281;28;20460;-49
2021/11/18 09:01:53;;;;;;;0.30;0.20;;;;;;;6.13;100.00;101704.78;5022255;28;20949;-48
2021/11/18 09:04:23;;;;;;;0.30;0.20;;;;;;;6.19;100.00;101698.72;5014511;28;20538;-50
2021/11/18 09:06:51;;;;;;;0.60;0.60;;;;;;;6.29;100.00;101708.50;5023196;28;21013;-48
2021/11/18 09:09:21;;;;;;;0.30;0.20;;;;;;;6.46;100.00;101693.75;5018781;28;20447;-49
2021/11/18 09:11:50;;;;;;;0.87;0.87;;;;;;;6.46;100.00;101692.88;5020472;28;20459;-48
2021/11/18 09:14:19;;;;;;;0.30;0.20;;;;;;;6.57;100.00;101708.81;5025308;28;20476;-48
2021/11/18 09:16:47;;;;;;;0.30;0.20;;;;;;;6.51;100.00;101707.00;5025325;28;20472;-48
2021/11/18 09:19:18;;;;;;;0.30;0.20;;;;;;;6.62;100.00;101707.13;5018598;28;20505;-48
2021/11/18 09:21:46;;;;;;;0.30;0.20;;;;;;;6.73;100.00;101714.28;5018728;28;21003;-48
2021/11/18 09:24:27;;;;;;;0.30;0.20;;;;;;;6.81;100.00;101722.28;5025180;28;20452;-48
2021/11/18 09:27:02;;;;;;;0.30;0.20;;;;;;;6.92;100.00;101723.28;5025709;28;20444;-48
2021/11/18 09:29:30;;;;;;;0.30;0.20;;;;;;;7.04;100.00;101735.72;5022616;28;20440;-48
2021/11/18 09:31:58;;;;;;;0.30;0.20;;;;;;;7.16;100.00;101719.97;5018498;28;20949;-49
2021/11/18 09:34:26;;;;;;;2.00;2.00;;;;;;;7.15;100.00;101722.59;5021064;28;20469;-48
2021/11/18 09:36:54;;;;;;;0.30;0.20;;;;;;;7.31;100.00;101712.16;5025262;28;20453;-49
2021/11/18 09:39:24;;;;;;;0.30;0.20;;;;;;;7.37;100.00;101693.69;5006731;28;20474;-49
2021/11/18 09:41:57;;;;;;;0.30;0.20;;;;;;;7.72;100.00;101714.19;5018543;28;21006;-48
2021/11/18 09:44:45;;;;;;;0.30;0.20;;;;;;;7.60;100.00;101714.13;5018746;28;20464;-49
2021/11/18 09:47:49;;;;;;;0.30;0.20;;;;;;;7.71;100.00;101704.50;5011162;28;20987;-49
2021/11/18 09:50:54;;;;;;;1.07;0.97;;;;;;;7.92;100.00;101709.88;5007932;28;21005;-48
2021/11/18 09:53:33;;;;;;;0.30;0.20;;;;;;;7.91;100.00;101705.47;5014868;28;21026;-49
2021/11/18 09:56:18;;;;;;;0.30;0.20;;;;;;;8.03;100.00;101716.13;5003808;28;20500;-49
2021/11/18 09:59:23;;;;;;;0.30;0.20;;;;;;;8.08;100.00;101713.50;5012173;28;20514;-48
2021/11/18 10:01:56;;;;;;;0.50;0.50;;;;;;;8.31;100.00;101716.25;5012965;28;20451;-48
2021/11/18 10:04:51;;;;;;;0.30;0.20;;;;;;;8.44;100.00;101723.41;5014480;28;20981;-48
2021/11/18 10:07:41;;;;;;;4.20;3.87;;;;;;;8.43;100.00;101718.09;5025286;28;20447;-48
2021/11/18 10:10:36;;;;;;;3.03;2.83;;;;;;;8.34;100.00;101711.00;5022999;28;20932;-48
2021/11/18 10:13:30;;;;;;;0.40;0.40;;;;;;;8.62;100.00;101706.66;5023693;28;20455;-48
2021/11/18 10:16:14;;;;;;;0.30;0.20;;;;;;;8.57;100.00;101708.41;5016749;28;20507;-49
2021/11/18 10:18:45;;;;;;;0.53;0.53;;;;;;;8.71;100.00;101711.09;5030393;28;21066;-50
2021/11/18 10:21:20;;;;;;;0.30;0.20;;;;;;;8.90;100.00;101712.88;5035221;28;20505;-49
2021/11/18 10:23:50;;;;;;;0.30;0.20;;;;;;;9.16;100.00;101729.72;5031126;28;20470;-50
2021/11/18 10:26:30;;;;;;;0.30;0.20;;;;;;;9.08;100.00;101733.25;5026668;28;20470;-50
2021/11/18 10:29:00;;;;;;;0.73;0.73;;;;;;;9.20;100.00;101722.66;5022404;28;20494;-50
2021/11/18 10:31:58;;;;;;;0.30;0.20;;;;;;;9.20;100.00;101736.81;5016583;28;20942;-49
2021/11/18 10:34:42;;;;;;;0.30;0.20;;;;;;;9.04;100.00;101731.47;5017461;28;20467;-50
2021/11/18 10:37:20;;;;;;;1.90;0.93;;;;;;;9.15;100.00;101733.25;5028257;28;20507;-49
2021/11/18 10:39:52;;;;;;;0.30;0.20;;;;;;;9.31;100.00;101731.47;5028396;28;20451;-50
2021/11/18 10:42:22;;;;;;;0.30;0.20;;;;;;;9.29;100.00;101729.72;5015297;28;20456;-50
2021/11/18 10:44:53;;;;;;;0.30;0.20;;;;;;;9.45;100.00;101721.72;5030725;28;20479;-50
2021/11/18 10:47:31;;;;;;;0.30;0.20;;;;;;;9.87;100.00;101722.56;5024724;28;20536;-49
2021/11/18 10:50:04;;;;;;;0.30;0.20;;;;;;;9.73;100.00;101711.06;5028294;28;20465;-50
2021/11/18 10:52:39;;;;;;;0.30;0.20;;;;;;;9.65;100.00;101718.19;5027921;28;20479;-50
2021/11/18 10:55:08;;;;;;;0.30;0.20;;;;;;;9.56;100.00;101707.56;5021421;28;20475;-51
2021/11/18 10:57:36;;;;;;;0.30;0.20;;;;;;;9.82;100.00;101695.13;5020935;28;20581;-50
2021/11/18 11:00:15;;;;;;;1.33;1.33;;;;;;;9.85;100.00;101695.09;5027081;28;20485;-48
2021/11/18 11:02:42;;;;;;;0.30;0.20;;;;;;;9.78;100.00;101699.56;5027763;28;20863;-48
2021/11/18 11:05:39;;;;;;;0.30;0.20;;;;;;;10.00;100.00;101686.22;5014532;28;20529;-48
2021/11/18 11:08:25;;;;;;;0.30;0.20;;;;;;;9.86;100.00;101690.69;5007091;28;20820;-48
2021/11/18 11:11:42;;;;;;;0.30;0.20;;;;;;;9.78;100.00;101694.25;5016477;28;20459;-48
2021/11/18 11:14:46;;;;;;;0.33;0.23;;;;;;;9.93;100.00;101690.66;5027308;28;20906;-48
2021/11/18 11:17:28;;;;;;;0.30;0.30;;;;;;;9.96;100.00;101687.13;5027301;28;20471;-48
2021/11/18 11:20:23;;;;;;;0.40;0.40;;;;;;;9.84;100.00;101688.03;5025523;28;20510;-48
2021/11/18 11:23:05;;;;;;;0.30;0.20;;;;;;;9.84;100.00;101688.03;5011891;28;20497;-48
2021/11/18 11:25:53;;;;;;;0.30;0.20;;;;;;;9.91;100.00;101694.22;5020680;28;20549;-48
2021/11/18 11:28:31;;;;;;;0.30;0.20;;;;;;;9.79;100.00;101693.38;5020273;28;20453;-49
2021/11/18 11:31:07;;;;;;;0.30;0.20;;;;;;;10.08;100.00;101693.28;5024557;28;20494;-48
2021/11/18 11:33:45;;;;;;;0.30;0.20;;;;;;;10.20;100.00;101691.47;5027105;28;20444;-48
2021/11/18 11:36:21;;;;;;;0.30;0.20;;;;;;;10.11;100.00;101684.41;5026139;28;20499;-48
2021/11/18 11:39:04;;;;;;;0.30;0.20;;;;;;;10.02;100.00;101684.47;5008106;28;20522;-48